createdAt,value
2019-05-05T00:01:59.719Z,81.46
2019-05-05T00:04:54.654Z,81.27
2019-05-05T00:07:30.633Z,81.40
2019-05-05T00:10:04.574Z,81.72
2019-05-05T00:13:08.290Z,82.14
2019-05-05T00:16:05.046Z,81.90
2019-05-05T00:18:37.926Z,81.92
2019-05-05T00:21:10.717Z,82.32
2019-05-05T00:23:45.131Z,82.31
2019-05-05T00:26:18.255Z,82.10
2019-05-05T00:28:51.104Z,82.28
2019-05-05T00:31:24.353Z,81.82
2019-05-05T00:33:57.191Z,81.83
2019-05-05T00:36:30.179Z,81.57
2019-05-05T00:39:04.326Z,81.73
2019-05-05T00:41:37.531Z,81.81
2019-05-05T00:44:10.415Z,81.83
2019-05-05T00:47:08.051Z,81.61
2019-05-05T00:49:46.312Z,81.81
2019-05-05T00:52:17.828Z,81.65
2019-05-05T00:54:50.611Z,81.76
2019-05-05T00:57:24.315Z,81.86
2019-05-05T00:59:57.156Z,81.76
2019-05-05T01:02:36.692Z,81.45
2019-05-05T01:05:26.098Z,81.60
2019-05-05T01:07:59.018Z,81.58
2019-05-05T01:10:32.785Z,81.74
2019-05-05T01:13:06.990Z,81.72
2019-05-05T01:15:40.166Z,81.90
2019-05-05T01:18:15.103Z,82.10
2019-05-05T01:20:49.079Z,81.89
2019-05-05T01:23:24.288Z,81.87
2019-05-05T01:25:56.868Z,81.75
2019-05-05T01:28:31.109Z,81.85
2019-05-05T01:31:07.244Z,82.17
2019-05-05T01:33:47.025Z,81.75
2019-05-05T01:36:19.801Z,81.43
2019-05-05T01:38:58.834Z,81.58
2019-05-05T01:41:38.395Z,81.44
2019-05-05T01:44:11.240Z,81.49
2019-05-05T01:46:44.553Z,81.37
2019-05-05T01:49:17.422Z,81.23
2019-05-05T01:51:50.216Z,81.14
2019-05-05T01:54:25.018Z,80.84
2019-05-05T01:56:58.410Z,80.85
2019-05-05T01:59:31.246Z,81.08
2019-05-05T02:02:04.404Z,80.69
2019-05-05T02:04:37.576Z,80.75
2019-05-05T02:07:10.463Z,80.65
2019-05-05T02:09:44.834Z,80.55
2019-05-05T02:12:17.839Z,80.46
2019-05-05T02:14:50.616Z,80.62
2019-05-05T02:17:24.694Z,80.57
2019-05-05T02:19:57.668Z,80.40
2019-05-05T02:22:30.470Z,80.29
2019-05-05T02:25:04.229Z,80.51
2019-05-05T02:27:37.306Z,80.44
2019-05-05T02:30:22.270Z,80.21
2019-05-05T02:33:02.110Z,80.21
2019-05-05T02:35:35.384Z,80.52
2019-05-05T02:38:08.285Z,80.40
2019-05-05T02:40:41.405Z,80.44
2019-05-05T02:43:15.261Z,80.43
2019-05-05T02:46:19.390Z,80.86
2019-05-05T02:48:55.321Z,80.81
2019-05-05T02:51:30.841Z,80.73
2019-05-05T02:54:05.153Z,80.77
2019-05-05T02:56:45.661Z,80.67
2019-05-05T02:59:30.632Z,80.79
2019-05-05T03:02:16.763Z,80.57
2019-05-05T03:04:49.620Z,80.61
2019-05-05T03:07:26.371Z,80.52
2019-05-05T03:10:03.590Z,80.24
2019-05-05T03:12:39.466Z,80.39
2019-05-05T03:15:22.136Z,80.58
2019-05-05T03:17:55.024Z,80.66
2019-05-05T03:20:27.892Z,80.49
2019-05-05T03:23:00.704Z,80.18
2019-05-05T03:25:33.795Z,80.01
2019-05-05T03:28:06.686Z,79.96
2019-05-05T03:30:39.566Z,80.17
2019-05-05T03:33:15.683Z,80.48
2019-05-05T03:35:47.745Z,80.28
2019-05-05T03:38:20.753Z,80.16
2019-05-05T03:40:55.483Z,80.17
2019-05-05T03:43:31.718Z,79.70
2019-05-05T03:46:07.071Z,80.02
2019-05-05T03:48:39.964Z,80.05
2019-05-05T03:51:18.775Z,79.77
2019-05-05T03:53:47.865Z,79.78
2019-05-05T03:56:20.757Z,79.51
2019-05-05T03:58:54.221Z,79.74
2019-05-05T04:01:44.011Z,79.72
2019-05-05T04:04:25.120Z,79.51
2019-05-05T04:06:58.134Z,80.00
2019-05-05T04:09:31.005Z,79.57
2019-05-05T04:12:04.453Z,79.68
2019-05-05T04:14:39.345Z,79.75
2019-05-05T04:17:39.356Z,79.01
2019-05-05T04:20:36.696Z,78.94
2019-05-05T04:23:09.430Z,78.66
2019-05-05T04:25:43.895Z,78.40
2019-05-05T04:28:16.868Z,78.47
2019-05-05T04:30:49.632Z,78.35
2019-05-05T04:33:23.642Z,78.35
2019-05-05T04:35:56.615Z,78.29
2019-05-05T04:38:29.471Z,78.38
2019-05-05T04:41:03.497Z,78.49
2019-05-05T04:43:36.543Z,78.66
2019-05-05T04:46:09.426Z,78.42
2019-05-05T04:48:56.893Z,78.20
2019-05-05T04:51:46.640Z,78.46
2019-05-05T04:54:24.601Z,78.73
2019-05-05T04:56:57.389Z,79.04
2019-05-05T04:59:30.235Z,78.90
2019-05-05T05:02:07.726Z,79.06
2019-05-05T05:04:48.800Z,78.67
2019-05-05T05:07:21.735Z,78.48
2019-05-05T05:09:54.556Z,78.54
2019-05-05T05:12:27.433Z,78.75
2019-05-05T05:15:00.192Z,78.41
2019-05-05T05:17:40.970Z,78.61
2019-05-05T05:20:14.414Z,78.59
2019-05-05T05:22:47.212Z,78.74
2019-05-05T05:25:19.978Z,78.56
2019-05-05T05:27:53.640Z,78.45
2019-05-05T05:30:26.521Z,77.91
2019-05-05T05:32:59.295Z,78.33
2019-05-05T05:35:33.582Z,77.26
2019-05-05T05:38:07.689Z,77.89
2019-05-05T05:40:48.921Z,77.55
2019-05-05T05:43:27.934Z,75.90
2019-05-05T05:46:08.052Z,75.97
2019-05-05T05:48:50.604Z,75.93
2019-05-05T05:51:23.889Z,75.80
2019-05-05T05:53:56.747Z,75.37
2019-05-05T05:56:29.538Z,74.63
2019-05-05T05:59:03.665Z,73.05
2019-05-05T06:01:36.664Z,73.20
2019-05-05T06:04:09.497Z,73.03
2019-05-05T06:06:43.884Z,71.68
2019-05-05T06:09:16.806Z,70.59
2019-05-05T06:11:49.587Z,69.37
2019-05-05T06:14:22.357Z,69.06
2019-05-05T06:16:55.128Z,69.07
2019-05-05T06:19:27.886Z,68.24
2019-05-05T06:22:00.654Z,67.24
2019-05-05T06:24:34.624Z,67.50
2019-05-05T06:27:07.817Z,68.14
2019-05-05T06:29:40.545Z,67.87
2019-05-05T06:32:14.654Z,66.77
2019-05-05T06:34:47.667Z,67.39
2019-05-05T06:37:20.461Z,67.28
2019-05-05T06:39:55.494Z,66.74
2019-05-05T06:42:37.718Z,66.88
2019-05-05T06:45:19.513Z,66.16
2019-05-05T06:47:53.750Z,65.01
2019-05-05T06:50:26.639Z,63.93
2019-05-05T06:52:59.398Z,63.81
2019-05-05T06:55:34.056Z,61.27
2019-05-05T06:58:07.319Z,61.71
2019-05-05T07:00:40.147Z,61.52
2019-05-05T07:03:13.942Z,62.17
2019-05-05T07:05:46.887Z,61.39
2019-05-05T07:08:19.729Z,62.25
2019-05-05T07:10:54.888Z,60.96
2019-05-05T07:13:27.754Z,58.00
2019-05-05T07:16:00.617Z,60.50
2019-05-05T07:18:34.239Z,59.64
2019-05-05T07:21:07.248Z,59.72
2019-05-05T07:23:40.162Z,58.12
2019-05-05T07:26:14.402Z,58.61
2019-05-05T07:28:47.535Z,58.07
2019-05-05T07:31:20.512Z,57.45
2019-05-05T07:33:54.417Z,58.68
2019-05-05T07:36:45.809Z,59.34
2019-05-05T07:39:18.724Z,59.09
2019-05-05T07:41:51.598Z,57.75
2019-05-05T07:44:29.431Z,56.31
2019-05-05T07:46:59.175Z,55.26
2019-05-05T07:49:33.612Z,54.75
2019-05-05T07:52:07.398Z,54.76
2019-05-05T07:54:40.543Z,52.85
2019-05-05T07:57:14.624Z,50.72
2019-05-05T07:59:47.616Z,49.24
2019-05-05T08:02:20.593Z,50.09
2019-05-05T08:04:54.602Z,49.54
2019-05-05T08:07:27.643Z,47.95
2019-05-05T08:10:00.500Z,49.59
2019-05-05T08:12:34.155Z,48.34
2019-05-05T08:15:08.718Z,47.76
2019-05-05T08:17:53.954Z,48.72
2019-05-05T08:20:33.914Z,47.93
2019-05-05T08:23:09.731Z,48.49
2019-05-05T08:26:14.522Z,47.93
2019-05-05T08:28:54.633Z,45.50
2019-05-05T08:32:01.578Z,42.52
2019-05-05T08:34:34.443Z,43.00
2019-05-05T08:37:07.324Z,43.25
2019-05-05T08:39:40.374Z,43.80
2019-05-05T08:42:14.479Z,44.08
2019-05-05T08:44:47.508Z,43.26
2019-05-05T08:47:20.313Z,43.33
2019-05-05T08:49:53.743Z,42.11
2019-05-05T08:52:26.807Z,42.06
2019-05-05T08:55:00.801Z,42.24
2019-05-05T08:57:34.147Z,42.31
2019-05-05T09:00:07.567Z,39.86
2019-05-05T09:02:40.494Z,40.93
2019-05-05T09:05:14.429Z,42.26
2019-05-05T09:07:47.581Z,41.73
2019-05-05T09:10:20.622Z,39.79
2019-05-05T09:12:54.659Z,38.98
2019-05-05T09:15:27.573Z,39.17
2019-05-05T09:18:00.461Z,39.93
2019-05-05T09:20:34.755Z,42.13
2019-05-05T09:23:08.295Z,41.88
2019-05-05T09:26:08.198Z,42.81
2019-05-05T09:28:48.698Z,43.48
2019-05-05T09:31:23.864Z,43.54
2019-05-05T09:36:30.589Z,42.46
2019-05-05T09:39:04.392Z,41.92
2019-05-05T09:41:37.720Z,42.92
2019-05-05T09:44:10.888Z,40.73
2019-05-05T09:46:44.633Z,40.79
2019-05-05T09:49:17.641Z,41.18
2019-05-05T09:51:50.566Z,40.73
2019-05-05T09:54:24.265Z,40.68
2019-05-05T09:56:57.437Z,40.43
2019-05-05T09:59:30.471Z,39.73
2019-05-05T10:02:04.450Z,42.33
2019-05-05T10:04:38.625Z,43.05
2019-05-05T10:07:13.659Z,43.95
2019-05-05T10:09:46.408Z,40.82
2019-05-05T10:12:19.347Z,40.16
2019-05-05T10:14:54.201Z,38.06
2019-05-05T10:17:27.268Z,38.95
2019-05-05T10:20:00.153Z,39.66
2019-05-05T10:22:34.314Z,42.64
2019-05-05T10:25:25.479Z,40.99
2019-05-05T10:27:58.603Z,42.00
2019-05-05T10:30:31.566Z,42.99
2019-05-05T10:33:04.449Z,43.75
2019-05-05T10:35:37.404Z,42.06
2019-05-05T10:38:10.478Z,41.66
2019-05-05T10:40:44.692Z,40.73
2019-05-05T10:43:17.863Z,42.06
2019-05-05T10:45:50.855Z,41.83
2019-05-05T10:48:23.780Z,41.86
2019-05-05T10:50:56.713Z,40.34
2019-05-05T10:53:29.747Z,40.58
2019-05-05T10:56:04.407Z,40.25
2019-05-05T10:58:37.561Z,41.23
2019-05-05T11:01:10.579Z,38.41
2019-05-05T11:03:44.689Z,38.25
2019-05-05T11:06:18.087Z,38.94
2019-05-05T11:08:51.237Z,39.84
2019-05-05T11:11:24.032Z,39.04
2019-05-05T11:13:57.389Z,38.25
2019-05-05T11:16:30.264Z,37.96
2019-05-05T11:19:04.310Z,34.95
2019-05-05T11:21:37.512Z,35.01
2019-05-05T11:24:10.684Z,36.60
2019-05-05T11:26:44.596Z,37.87
2019-05-05T11:29:18.116Z,38.66
2019-05-05T11:31:51.044Z,38.94
2019-05-05T11:34:27.384Z,36.77
2019-05-05T11:37:08.703Z,37.35
2019-05-05T11:39:41.599Z,37.46
2019-05-05T11:42:14.733Z,38.08
2019-05-05T11:44:47.690Z,36.15
2019-05-05T11:47:20.573Z,35.24
2019-05-05T11:49:56.229Z,34.61
2019-05-05T11:52:28.102Z,35.49
2019-05-05T11:55:11.253Z,35.98
2019-05-05T11:57:35.535Z,36.60
2019-05-05T12:00:08.904Z,35.81
2019-05-05T12:02:43.854Z,36.73
2019-05-05T12:05:16.673Z,38.37
2019-05-05T12:07:49.557Z,38.52
2019-05-05T12:10:39.847Z,37.25
2019-05-05T12:13:16.085Z,36.62
2019-05-05T12:15:53.812Z,34.45
2019-05-05T12:18:34.253Z,33.79
2019-05-05T12:21:08.140Z,32.09
2019-05-05T12:23:41.181Z,33.06
2019-05-05T12:26:31.728Z,33.14
2019-05-05T12:29:10.341Z,31.69
2019-05-05T12:31:48.326Z,32.33
2019-05-05T12:34:21.230Z,34.25
2019-05-05T12:36:54.221Z,32.65
2019-05-05T12:39:27.227Z,33.85
2019-05-05T12:42:00.517Z,34.06
2019-05-05T12:44:41.698Z,35.00
2019-05-05T12:47:34.123Z,34.72
2019-05-05T12:50:06.865Z,33.38
2019-05-05T12:52:39.709Z,34.78
2019-05-05T12:55:14.295Z,34.15
2019-05-05T12:57:47.321Z,33.93
2019-05-05T13:00:21.706Z,34.76
2019-05-05T13:02:54.613Z,34.76
2019-05-05T13:05:27.612Z,34.38
2019-05-05T13:08:00.535Z,35.85
2019-05-05T13:10:33.741Z,34.55
2019-05-05T13:13:06.759Z,34.20
2019-05-05T13:15:40.077Z,35.40
2019-05-05T13:18:14.012Z,37.43
2019-05-05T13:21:04.253Z,37.60
2019-05-05T13:24:01.808Z,36.13
2019-05-05T13:26:45.309Z,35.80
2019-05-05T13:29:18.206Z,34.44
2019-05-05T13:31:51.207Z,34.02
2019-05-05T13:34:24.464Z,35.78
2019-05-05T13:36:57.794Z,35.46
2019-05-05T13:39:30.742Z,34.46
2019-05-05T13:42:04.543Z,35.11
2019-05-05T13:44:58.362Z,35.15
2019-05-05T13:47:31.369Z,35.46
2019-05-05T13:50:19.519Z,34.83
2019-05-05T13:52:52.773Z,35.24
2019-05-05T13:55:25.735Z,35.91
2019-05-05T13:57:58.748Z,36.87
2019-05-05T14:00:33.703Z,35.65
2019-05-05T14:03:06.681Z,36.26
2019-05-05T14:05:39.570Z,35.83
2019-05-05T14:08:14.742Z,36.45
2019-05-05T14:10:47.784Z,35.10
2019-05-05T14:13:20.641Z,35.71
2019-05-05T14:15:54.473Z,36.49
2019-05-05T14:18:27.463Z,36.42
2019-05-05T14:21:00.412Z,36.69
2019-05-05T14:23:35.599Z,33.75
2019-05-05T14:26:08.494Z,33.35
2019-05-05T14:28:41.482Z,33.12
2019-05-05T14:31:16.406Z,30.80
2019-05-05T14:33:57.365Z,31.35
2019-05-05T14:36:37.430Z,32.70
2019-05-05T14:39:11.977Z,31.34
2019-05-05T14:41:45.146Z,32.58
2019-05-05T14:44:17.985Z,29.91
2019-05-05T14:46:50.843Z,29.98
2019-05-05T14:49:24.619Z,31.69
2019-05-05T14:51:57.605Z,30.13
2019-05-05T14:54:30.521Z,30.25
2019-05-05T14:57:04.539Z,33.39
2019-05-05T14:59:37.498Z,32.34
2019-05-05T15:02:11.580Z,32.02
2019-05-05T15:04:44.615Z,32.43
2019-05-05T15:07:34.498Z,31.49
2019-05-05T15:10:29.448Z,31.32
2019-05-05T15:13:05.764Z,31.63
2019-05-05T15:15:39.867Z,31.87
2019-05-05T15:18:14.598Z,31.94
2019-05-05T15:20:47.643Z,32.04
2019-05-05T15:23:20.523Z,33.12
2019-05-05T15:25:54.015Z,33.69
2019-05-05T15:28:27.129Z,33.02
2019-05-05T15:31:00.046Z,32.65
2019-05-05T15:33:33.690Z,32.76
2019-05-05T15:36:06.530Z,33.44
2019-05-05T15:38:39.572Z,34.12
2019-05-05T15:41:14.380Z,34.32
2019-05-05T15:43:47.195Z,34.43
2019-05-05T15:46:19.995Z,33.08
2019-05-05T15:48:54.566Z,33.79
2019-05-05T15:51:28.435Z,32.34
2019-05-05T15:54:01.236Z,31.28
2019-05-05T15:56:34.255Z,32.43
2019-05-05T15:59:07.329Z,31.39
2019-05-05T16:01:40.574Z,32.05
2019-05-05T16:04:14.116Z,31.46
2019-05-05T16:06:50.513Z,31.37
2019-05-05T16:09:23.388Z,32.56
2019-05-05T16:11:56.206Z,32.33
2019-05-05T16:14:29.288Z,32.90
2019-05-05T16:17:30.039Z,32.98
2019-05-05T16:20:10.026Z,32.60
2019-05-05T16:23:14.355Z,32.46
2019-05-05T16:25:47.337Z,33.97
2019-05-05T16:28:21.223Z,32.44
2019-05-05T16:30:56.120Z,31.56
2019-05-05T16:33:28.715Z,32.42
2019-05-05T16:36:01.556Z,32.78
2019-05-05T16:38:34.512Z,33.11
2019-05-05T16:41:07.490Z,33.12
2019-05-05T16:43:40.345Z,33.68
2019-05-05T16:46:16.992Z,33.34
2019-05-05T16:48:48.993Z,33.67
2019-05-05T16:51:25.802Z,33.54
2019-05-05T16:54:00.452Z,33.11
2019-05-05T16:56:33.640Z,32.17
2019-05-05T16:59:06.572Z,31.91
2019-05-05T17:01:39.555Z,31.93
2019-05-05T17:04:14.293Z,31.36
2019-05-05T17:06:47.166Z,30.79
2019-05-05T17:09:20.034Z,29.69
2019-05-05T17:12:11.151Z,30.54
2019-05-05T17:15:17.855Z,30.40
2019-05-05T17:17:57.068Z,31.32
2019-05-05T17:20:33.755Z,31.22
2019-05-05T17:23:08.858Z,30.89
2019-05-05T17:25:43.814Z,30.93
2019-05-05T17:28:17.131Z,30.98
2019-05-05T17:30:50.011Z,30.99
2019-05-05T17:33:24.168Z,31.86
2019-05-05T17:35:57.158Z,31.90
2019-05-05T17:38:30.119Z,32.30
2019-05-05T17:41:14.192Z,32.59
2019-05-05T17:44:09.418Z,32.66
2019-05-05T17:46:55.944Z,32.31
2019-05-05T17:49:45.774Z,32.61
2019-05-05T17:52:36.182Z,32.99
2019-05-05T17:55:33.860Z,33.96
2019-05-05T17:58:06.957Z,33.98
2019-05-05T18:00:54.351Z,33.71
2019-05-05T18:03:27.534Z,34.80
2019-05-05T18:06:18.254Z,34.18
2019-05-05T18:08:55.735Z,34.65
2019-05-05T18:11:38.244Z,34.73
2019-05-05T18:14:16.504Z,35.13
2019-05-05T18:16:49.383Z,35.37
2019-05-05T18:19:24.777Z,35.78
2019-05-05T18:21:57.784Z,36.07
2019-05-05T18:24:30.762Z,36.00
2019-05-05T18:27:04.572Z,36.43
2019-05-05T18:29:37.682Z,36.55
2019-05-05T18:32:10.560Z,36.62
2019-05-05T18:34:43.409Z,37.09
2019-05-05T18:37:16.282Z,37.18
2019-05-05T18:39:49.343Z,37.49
2019-05-05T18:42:24.674Z,37.30
2019-05-05T18:45:03.592Z,37.68
2019-05-05T18:47:37.516Z,37.98
2019-05-05T18:50:10.841Z,38.47
2019-05-05T18:52:47.054Z,38.82
2019-05-05T18:55:18.759Z,39.03
2019-05-05T18:57:51.850Z,39.72
2019-05-05T19:00:45.192Z,39.40
2019-05-05T19:03:24.524Z,39.29
2019-05-05T19:06:16.628Z,39.72
2019-05-05T19:08:54.409Z,40.24
2019-05-05T19:11:26.339Z,40.23
2019-05-05T19:13:59.668Z,40.50
2019-05-05T19:16:34.561Z,40.93
2019-05-05T19:19:07.495Z,41.04
2019-05-05T19:21:43.827Z,41.30
2019-05-05T19:24:17.069Z,41.42
2019-05-05T19:26:50.360Z,41.31
2019-05-05T19:29:25.335Z,41.90
2019-05-05T19:31:58.688Z,41.71
2019-05-05T19:34:35.119Z,42.12
2019-05-05T19:37:06.881Z,41.79
2019-05-05T19:39:39.950Z,42.26
2019-05-05T19:42:14.416Z,42.16
2019-05-05T19:44:47.714Z,42.40
2019-05-05T19:47:22.078Z,42.52
2019-05-05T19:50:03.590Z,42.83
2019-05-05T19:52:36.983Z,43.13
2019-05-05T19:55:13.720Z,43.46
2019-05-05T19:57:46.515Z,43.70
2019-05-05T20:00:20.246Z,44.65
2019-05-05T20:03:04.238Z,44.60
2019-05-05T20:05:29.222Z,45.06
2019-05-05T20:08:03.930Z,44.30
2019-05-05T20:10:37.189Z,44.80
2019-05-05T20:13:13.824Z,45.15
2019-05-05T20:16:18.092Z,45.51
2019-05-05T20:18:51.297Z,45.77
2019-05-05T20:21:24.367Z,45.61
2019-05-05T20:23:57.397Z,45.61
2019-05-05T20:26:30.646Z,45.68
2019-05-05T20:29:11.545Z,45.43
2019-05-05T20:31:38.502Z,45.75
2019-05-05T20:34:24.428Z,45.45
2019-05-05T20:37:11.031Z,45.69
2019-05-05T20:39:44.258Z,46.54
2019-05-05T20:42:17.140Z,46.35
2019-05-05T20:44:50.192Z,46.34
2019-05-05T20:47:23.726Z,46.35
2019-05-05T20:49:57.034Z,46.86
2019-05-05T20:52:30.173Z,46.80
2019-05-05T20:55:04.780Z,46.39
2019-05-05T20:57:38.145Z,46.68
2019-05-05T21:00:14.544Z,47.54
2019-05-05T21:02:49.046Z,48.18
2019-05-05T21:05:24.021Z,48.71
2019-05-05T21:07:56.613Z,48.46
2019-05-05T21:10:29.483Z,48.88
2019-05-05T21:13:03.727Z,49.04
2019-05-05T21:15:36.911Z,50.46
2019-05-05T21:18:09.797Z,52.18
2019-05-05T21:20:44.036Z,52.13
2019-05-05T21:23:21.403Z,53.61
2019-05-05T21:25:58.116Z,54.62
2019-05-05T21:28:30.975Z,55.72
2019-05-05T21:31:04.824Z,56.53
2019-05-05T21:33:37.870Z,56.84
2019-05-05T21:36:11.155Z,56.54
2019-05-05T21:38:44.102Z,57.00
2019-05-05T21:41:19.279Z,57.70
2019-05-05T21:43:51.549Z,57.37
2019-05-05T21:46:24.545Z,57.54
2019-05-05T21:48:57.460Z,57.67
2019-05-05T21:51:45.979Z,57.76
2019-05-05T21:54:44.046Z,57.55
2019-05-05T21:57:38.552Z,58.01
2019-05-05T22:00:39.559Z,58.33
2019-05-05T22:03:17.195Z,58.92
2019-05-05T22:05:50.167Z,58.28
2019-05-05T22:08:23.940Z,58.92
2019-05-05T22:10:56.966Z,58.72
2019-05-05T22:13:29.790Z,57.71
2019-05-05T22:16:04.088Z,58.50
2019-05-05T22:18:37.045Z,59.19
2019-05-05T22:21:19.146Z,60.31
2019-05-05T22:24:12.852Z,60.51
2019-05-05T22:26:44.760Z,60.51
2019-05-05T22:29:18.059Z,60.88
2019-05-05T22:31:50.932Z,61.21
2019-05-05T22:34:24.173Z,60.82
2019-05-05T22:36:57.225Z,61.33
2019-05-05T22:39:33.662Z,61.71
2019-05-05T22:42:06.104Z,61.46
2019-05-05T22:44:38.999Z,60.77
2019-05-05T22:47:13.889Z,61.06
2019-05-05T22:49:46.877Z,60.94
2019-05-05T22:52:19.668Z,61.19
2019-05-05T22:54:52.527Z,60.50
2019-05-05T22:57:25.532Z,61.55
2019-05-05T22:59:58.295Z,61.48
2019-05-05T23:02:34.175Z,60.50
2019-05-05T23:05:24.429Z,61.85
2019-05-05T23:07:58.395Z,61.47
2019-05-05T23:10:31.451Z,60.87
2019-05-05T23:13:04.430Z,60.85
2019-05-05T23:15:39.384Z,60.71
2019-05-05T23:18:20.712Z,60.87
2019-05-05T23:21:15.563Z,61.14
2019-05-05T23:24:09.468Z,61.24
2019-05-05T23:26:43.834Z,61.54
2019-05-05T23:29:17.763Z,61.80
2019-05-05T23:31:50.643Z,61.56
2019-05-05T23:34:24.282Z,62.25
2019-05-05T23:36:57.325Z,62.09
2019-05-05T23:39:30.172Z,61.63
2019-05-05T23:42:04.072Z,62.91
2019-05-05T23:44:36.928Z,62.08
2019-05-05T23:47:09.731Z,63.04
2019-05-05T23:49:44.024Z,62.41
2019-05-05T23:52:17.020Z,62.45
2019-05-05T23:54:49.908Z,62.66
2019-05-05T23:57:24.553Z,63.12
2019-05-05T23:59:57.182Z,63.22
